Time;durP1;ratioP1;P1;durP2;ratioP2;P2;SDS_P1;SDS_P2;PMS_P1;PMS_P2;Temp;Humidity;BMP_temperature;BMP_pressure;BME280_temperature;BME280_humidity;BME280_pressure;Samples;Min_cycle;Max_cycle;Signal;HPM_P1;HPM_P2
2022/03/11 00:00:45;;;;;;;97.70;24.45;;;;;;;;;;4988307;28;20467;-62
2022/03/11 00:03:11;;;;;;;88.07;22.85;;;;;;;;;;4989087;28;20433;-61
2022/03/11 00:05:37;;;;;;;80.20;22.67;;;;;;;;;;4988378;28;20325;-62
2022/03/11 00:08:03;;;;;;;89.88;23.30;;;;;;;;;;4989361;28;20333;-62
2022/03/11 00:10:29;;;;;;;91.88;22.55;;;;;;;;;;4992007;28;20418;-61
2022/03/11 00:12:54;;;;;;;89.55;24.92;;;;;;;;;;4991867;28;20349;-62
2022/03/11 00:15:19;;;;;;;75.38;20.48;;;;;;;;;;4992802;28;20344;-62
2022/03/11 00:17:45;;;;;;;80.07;22.67;;;;;;;;;;4992164;28;20451;-61
2022/03/11 00:20:10;;;;;;;87.32;23.48;;;;;;;;;;4992101;28;20344;-62
2022/03/11 00:22:35;;;;;;;73.55;20.17;;;;;;;;;;4991820;28;20333;-62
2022/03/11 00:25:01;;;;;;;77.38;20.40;;;;;;;;;;4991922;28;20475;-61
2022/03/11 00:27:26;;;;;;;75.80;19.30;;;;;;;;;;4991851;28;20335;-62
2022/03/11 00:29:52;;;;;;;73.30;18.95;;;;;;;;;;4991980;28;20324;-62
2022/03/11 00:32:18;;;;;;;75.50;21.45;;;;;;;;;;4991255;28;20417;-62
2022/03/11 00:34:43;;;;;;;75.47;21.00;;;;;;;;;;4991364;28;20387;-62
2022/03/11 00:37:08;;;;;;;84.63;21.38;;;;;;;;;;4991465;28;20040;-61
2022/03/11 00:39:34;;;;;;;74.30;21.25;;;;;;;;;;4991442;28;20503;-61
2022/03/11 00:41:59;;;;;;;74.38;21.38;;;;;;;;;;4991273;28;20424;-61
2022/03/11 00:44:25;;;;;;;76.97;21.73;;;;;;;;;;4991112;28;20441;-61
2022/03/11 00:46:50;;;;;;;84.40;23.05;;;;;;;;;;4991346;28;20504;-62
2022/03/11 00:49:15;;;;;;;75.68;19.55;;;;;;;;;;4991546;28;20033;-62
2022/03/11 00:51:40;;;;;;;85.75;22.00;;;;;;;;;;4991223;28;20436;-61
2022/03/11 00:54:06;;;;;;;79.78;22.23;;;;;;;;;;4990963;28;20443;-61
2022/03/11 00:56:31;;;;;;;86.85;23.92;;;;;;;;;;4991452;28;20477;-62
2022/03/11 00:58:57;;;;;;;70.38;20.35;;;;;;;;;;4990861;28;20455;-63
2022/03/11 01:01:22;;;;;;;69.35;20.30;;;;;;;;;;4984437;28;20476;-62
2022/03/11 01:03:49;;;;;;;68.43;22.08;;;;;;;;;;4973980;28;20321;-62
2022/03/11 01:06:14;;;;;;;84.45;23.67;;;;;;;;;;4972856;28;20424;-61
2022/03/11 01:08:39;;;;;;;81.60;23.60;;;;;;;;;;4971264;28;20030;-62
2022/03/11 01:11:08;;;;;;;68.85;23.60;;;;;;;;;;4971387;28;20376;-61
2022/03/11 01:13:34;;;;;;;83.03;24.67;;;;;;;;;;4971184;28;20476;-61
2022/03/11 01:15:59;;;;;;;74.57;23.00;;;;;;;;;;4971409;28;20425;-61
2022/03/11 01:18:24;;;;;;;88.97;25.45;;;;;;;;;;4970683;28;20460;-62
2022/03/11 01:20:50;;;;;;;77.90;22.92;;;;;;;;;;4970271;28;20488;-62
2022/03/11 01:23:15;;;;;;;92.38;25.77;;;;;;;;;;4970868;28;20456;-62
2022/03/11 01:25:42;;;;;;;86.68;24.35;;;;;;;;;;4971199;28;20632;-61
2022/03/11 01:28:07;;;;;;;72.07;20.83;;;;;;;;;;4970820;28;20347;-61
2022/03/11 01:30:33;;;;;;;71.72;21.35;;;;;;;;;;4970943;28;20029;-61
2022/03/11 01:32:58;;;;;;;68.88;20.92;;;;;;;;;;4970473;28;20491;-61
2022/03/11 01:35:23;;;;;;;71.25;21.27;;;;;;;;;;4970816;28;20225;-61
2022/03/11 01:37:48;;;;;;;70.47;20.38;;;;;;;;;;4971968;28;20352;-61
2022/03/11 01:40:14;;;;;;;61.25;18.73;;;;;;;;;;4971059;28;20362;-61
2022/03/11 01:42:39;;;;;;;65.78;19.55;;;;;;;;;;4970841;28;20431;-60
2022/03/11 01:45:05;;;;;;;67.03;19.80;;;;;;;;;;4970447;28;20360;-61
2022/03/11 01:47:31;;;;;;;66.47;19.20;;;;;;;;;;4971617;28;20365;-61
2022/03/11 01:49:56;;;;;;;49.67;17.95;;;;;;;;;;4970477;28;20398;-60
2022/03/11 01:52:22;;;;;;;58.95;17.13;;;;;;;;;;4970404;28;20457;-60
2022/03/11 01:54:49;;;;;;;57.10;16.10;;;;;;;;;;4970715;28;20361;-60
2022/03/11 01:57:14;;;;;;;47.33;16.08;;;;;;;;;;4952542;28;20453;-60
2022/03/11 01:59:40;;;;;;;56.28;17.75;;;;;;;;;;4970154;28;20375;-61
2022/03/11 02:02:06;;;;;;;55.70;17.27;;;;;;;;;;4952967;28;20428;-61
2022/03/11 02:04:31;;;;;;;52.83;17.63;;;;;;;;;;4971337;28;20467;-62
2022/03/11 02:06:57;;;;;;;51.80;16.13;;;;;;;;;;4969797;28;20352;-61
2022/03/11 02:09:22;;;;;;;50.25;14.57;;;;;;;;;;4970900;28;20381;-61
2022/03/11 02:11:47;;;;;;;50.72;15.73;;;;;;;;;;4969742;28;20099;-63
2022/03/11 02:14:14;;;;;;;48.47;14.75;;;;;;;;;;4969928;28;20094;-61
2022/03/11 02:16:40;;;;;;;51.80;15.13;;;;;;;;;;4969858;28;20508;-61
2022/03/11 02:19:07;;;;;;;56.70;16.30;;;;;;;;;;4969858;28;20602;-61
2022/03/11 02:21:39;;;;;;;48.33;14.48;;;;;;;;;;4971054;28;20342;-61
2022/03/11 02:24:07;;;;;;;49.78;14.43;;;;;;;;;;4969704;28;20033;-62
2022/03/11 02:26:32;;;;;;;55.70;15.63;;;;;;;;;;4969931;28;20397;-63
2022/03/11 02:28:59;;;;;;;54.33;15.68;;;;;;;;;;4969648;28;20075;-61
2022/03/11 02:31:28;;;;;;;41.22;14.80;;;;;;;;;;4969944;28;20018;-62
2022/03/11 02:33:54;;;;;;;47.72;14.82;;;;;;;;;;4969504;28;20567;-61
2022/03/11 02:36:20;;;;;;;46.53;14.45;;;;;;;;;;4969736;28;20432;-61
2022/03/11 02:38:45;;;;;;;40.90;14.35;;;;;;;;;;4969362;28;20375;-62
2022/03/11 02:41:11;;;;;;;42.65;15.32;;;;;;;;;;4969538;28;20021;-61
2022/03/11 02:43:36;;;;;;;36.53;13.02;;;;;;;;;;4969272;28;20334;-62
2022/03/11 02:46:02;;;;;;;41.63;14.73;;;;;;;;;;4969813;28;20096;-61
2022/03/11 02:48:27;;;;;;;48.35;13.88;;;;;;;;;;4969616;28;20528;-61
2022/03/11 02:50:53;;;;;;;37.15;12.35;;;;;;;;;;4969156;28;20033;-63
2022/03/11 02:53:18;;;;;;;39.35;13.40;;;;;;;;;;4969535;28;20041;-62
2022/03/11 02:55:43;;;;;;;42.28;12.55;;;;;;;;;;4952045;28;20149;-62
2022/03/11 02:58:09;;;;;;;35.72;13.25;;;;;;;;;;4969139;28;20419;-62
2022/03/11 03:00:34;;;;;;;38.30;12.02;;;;;;;;;;4969704;28;20420;-61
2022/03/11 03:03:00;;;;;;;38.92;12.93;;;;;;;;;;4969347;28;20053;-62
2022/03/11 03:05:25;;;;;;;36.33;12.95;;;;;;;;;;4969256;28;20353;-62
2022/03/11 03:07:50;;;;;;;42.83;11.80;;;;;;;;;;4969484;28;20025;-62
2022/03/11 03:10:16;;;;;;;39.72;12.57;;;;;;;;;;4969082;28;20372;-62
2022/03/11 03:12:41;;;;;;;35.85;11.77;;;;;;;;;;4969258;28;20384;-61
2022/03/11 03:15:07;;;;;;;32.83;9.85;;;;;;;;;;4969206;28;20535;-61
2022/03/11 03:17:33;;;;;;;34.60;12.88;;;;;;;;;;4969007;28;20400;-62
2022/03/11 03:19:58;;;;;;;34.20;10.90;;;;;;;;;;4969861;28;20383;-62
2022/03/11 03:22:24;;;;;;;23.48;10.07;;;;;;;;;;4969685;28;20356;-61
2022/03/11 03:24:49;;;;;;;31.10;9.70;;;;;;;;;;4969783;28;20403;-61
2022/03/11 03:27:15;;;;;;;29.70;11.57;;;;;;;;;;4969448;28;20492;-62
2022/03/11 03:29:40;;;;;;;34.10;10.60;;;;;;;;;;4969591;28;20428;-61
2022/03/11 03:32:06;;;;;;;25.55;9.15;;;;;;;;;;4969269;28;20341;-61
2022/03/11 03:34:34;;;;;;;26.95;11.25;;;;;;;;;;4969677;28;20433;-62
2022/03/11 03:37:01;;;;;;;30.05;9.43;;;;;;;;;;4970637;28;20393;-63
2022/03/11 03:39:26;;;;;;;32.38;9.93;;;;;;;;;;4971564;28;20453;-61
2022/03/11 03:41:53;;;;;;;24.98;9.60;;;;;;;;;;4968759;28;20484;-61
2022/03/11 03:44:18;;;;;;;31.48;9.05;;;;;;;;;;4971411;28;20360;-61
2022/03/11 03:46:44;;;;;;;26.40;9.30;;;;;;;;;;4973062;28;20353;-61
2022/03/11 03:49:09;;;;;;;30.63;10.63;;;;;;;;;;4972868;28;20377;-61
2022/03/11 03:51:35;;;;;;;26.27;9.25;;;;;;;;;;4972548;28;20404;-61
2022/03/11 03:54:00;;;;;;;32.40;9.07;;;;;;;;;;4973028;28;20340;-61
2022/03/11 03:56:26;;;;;;;25.27;8.85;;;;;;;;;;4972230;28;20452;-61
2022/03/11 03:58:51;;;;;;;26.58;9.07;;;;;;;;;;4972531;28;20507;-61
2022/03/11 04:01:16;;;;;;;28.00;9.52;;;;;;;;;;4973013;28;20492;-61
2022/03/11 04:03:42;;;;;;;28.73;8.32;;;;;;;;;;4972137;28;20122;-62
2022/03/11 04:06:07;;;;;;;29.13;9.80;;;;;;;;;;4972817;28;20417;-62
2022/03/11 04:08:32;;;;;;;19.50;7.78;;;;;;;;;;4972302;28;20405;-61
2022/03/11 04:10:58;;;;;;;27.33;9.20;;;;;;;;;;4972319;28;20380;-61
2022/03/11 04:13:23;;;;;;;26.55;9.73;;;;;;;;;;4972023;28;20511;-61
2022/03/11 04:15:48;;;;;;;22.30;8.13;;;;;;;;;;4972336;28;20052;-61
2022/03/11 04:18:14;;;;;;;21.90;9.02;;;;;;;;;;4972255;28;20522;-61
2022/03/11 04:20:40;;;;;;;18.17;8.10;;;;;;;;;;4972483;28;20423;-61
2022/03/11 04:23:06;;;;;;;29.65;8.75;;;;;;;;;;4971966;28;20419;-62
2022/03/11 04:25:31;;;;;;;29.48;8.77;;;;;;;;;;4974180;28;20143;-61
2022/03/11 04:27:56;;;;;;;21.63;7.95;;;;;;;;;;4971963;28;20520;-61
2022/03/11 04:30:22;;;;;;;23.27;7.88;;;;;;;;;;4971822;28;20444;-61
2022/03/11 04:32:47;;;;;;;28.60;9.90;;;;;;;;;;4971986;28;20519;-61
2022/03/11 04:35:12;;;;;;;23.05;8.48;;;;;;;;;;4971936;28;20402;-61
2022/03/11 04:37:38;;;;;;;23.23;7.97;;;;;;;;;;4972000;28;20430;-62
2022/03/11 04:40:04;;;;;;;22.25;7.95;;;;;;;;;;4971904;28;20417;-61
2022/03/11 04:42:30;;;;;;;22.05;7.60;;;;;;;;;;4973111;28;20451;-62
2022/03/11 04:44:55;;;;;;;25.08;7.72;;;;;;;;;;4971283;28;20372;-61
2022/03/11 04:47:20;;;;;;;23.40;9.40;;;;;;;;;;4972555;28;20433;-61
2022/03/11 04:49:46;;;;;;;27.50;9.00;;;;;;;;;;4971651;28;20443;-61
2022/03/11 04:52:11;;;;;;;26.40;9.45;;;;;;;;;;4971988;28;20439;-61
2022/03/11 04:54:36;;;;;;;19.27;6.68;;;;;;;;;;4970739;28;20343;-66
2022/03/11 04:57:02;;;;;;;19.85;8.02;;;;;;;;;;4971207;28;20144;-61
2022/03/11 04:59:27;;;;;;;25.55;8.18;;;;;;;;;;4971203;28;20356;-62
2022/03/11 05:01:52;;;;;;;22.95;8.65;;;;;;;;;;4971364;28;20372;-61
2022/03/11 05:04:18;;;;;;;18.30;7.32;;;;;;;;;;4972979;28;20420;-61
2022/03/11 05:06:43;;;;;;;15.43;6.53;;;;;;;;;;4971617;28;20415;-61
2022/03/11 05:09:08;;;;;;;20.88;7.80;;;;;;;;;;4971187;28;20333;-61
2022/03/11 05:11:34;;;;;;;19.20;7.22;;;;;;;;;;4972198;28;20438;-61
2022/03/11 05:13:59;;;;;;;23.90;8.23;;;;;;;;;;4971248;28;20516;-61
2022/03/11 05:16:24;;;;;;;19.92;7.28;;;;;;;;;;4971280;28;20037;-62
2022/03/11 05:18:53;;;;;;;15.52;7.28;;;;;;;;;;4972624;28;20421;-61
2022/03/11 05:21:19;;;;;;;20.95;7.75;;;;;;;;;;4971043;28;20056;-63
2022/03/11 05:23:44;;;;;;;23.17;8.15;;;;;;;;;;4971188;28;20037;-61
2022/03/11 05:26:24;;;;;;;16.50;7.07;;;;;;;;;;4970593;28;20037;-61
2022/03/11 05:28:53;;;;;;;14.10;6.10;;;;;;;;;;4969241;28;20333;-61
2022/03/11 05:31:19;;;;;;;20.88;7.68;;;;;;;;;;4970704;28;20499;-61
2022/03/11 05:33:44;;;;;;;19.75;7.88;;;;;;;;;;4970885;28;20345;-61
2022/03/11 05:36:09;;;;;;;20.73;7.10;;;;;;;;;;4970920;28;20052;-61
2022/03/11 05:38:34;;;;;;;16.77;6.80;;;;;;;;;;4971604;28;20471;-62
2022/03/11 05:41:00;;;;;;;13.55;6.63;;;;;;;;;;4970299;28;20112;-61
2022/03/11 05:43:25;;;;;;;15.00;6.53;;;;;;;;;;4972155;28;20464;-61
2022/03/11 05:45:50;;;;;;;12.30;5.95;;;;;;;;;;4970292;28;20433;-61
2022/03/11 05:48:16;;;;;;;19.38;7.03;;;;;;;;;;4970570;28;20428;-61
2022/03/11 05:50:41;;;;;;;19.17;7.68;;;;;;;;;;4970775;28;20048;-62
2022/03/11 05:53:06;;;;;;;24.75;8.30;;;;;;;;;;4970322;28;20364;-62
2022/03/11 05:55:32;;;;;;;19.52;6.72;;;;;;;;;;4970662;28;20448;-61
2022/03/11 05:57:57;;;;;;;13.07;5.60;;;;;;;;;;4970243;28;20402;-62
2022/03/11 06:00:22;;;;;;;14.88;6.57;;;;;;;;;;4969980;28;20021;-61
2022/03/11 06:02:48;;;;;;;23.13;7.85;;;;;;;;;;4970265;28;20056;-61
2022/03/11 06:05:13;;;;;;;21.20;8.07;;;;;;;;;;4971027;28;20033;-62
2022/03/11 06:07:39;;;;;;;20.67;7.47;;;;;;;;;;4969664;28;20411;-61
2022/03/11 06:10:05;;;;;;;18.50;6.90;;;;;;;;;;4971143;28;20320;-61
2022/03/11 06:12:30;;;;;;;16.27;7.43;;;;;;;;;;4970972;28;20341;-61
2022/03/11 06:14:57;;;;;;;19.45;7.13;;;;;;;;;;4970076;28;20025;-61
2022/03/11 06:17:23;;;;;;;17.55;6.30;;;;;;;;;;4971197;28;20484;-62
2022/03/11 06:19:48;;;;;;;17.98;6.72;;;;;;;;;;4969946;28;20037;-61
2022/03/11 06:22:14;;;;;;;18.40;6.72;;;;;;;;;;4970021;28;20510;-61
2022/03/11 06:24:39;;;;;;;15.85;6.43;;;;;;;;;;4969669;28;20574;-61
2022/03/11 06:27:04;;;;;;;16.50;6.90;;;;;;;;;;4969694;28;20318;-61
2022/03/11 06:29:30;;;;;;;16.02;6.60;;;;;;;;;;4970315;28;20045;-62
2022/03/11 06:31:55;;;;;;;12.50;6.30;;;;;;;;;;4970175;28;20352;-62
2022/03/11 06:34:20;;;;;;;14.43;5.68;;;;;;;;;;4969571;28;20449;-62
2022/03/11 06:36:46;;;;;;;15.70;7.50;;;;;;;;;;4969520;28;20064;-62
2022/03/11 06:39:13;;;;;;;15.45;6.70;;;;;;;;;;4969494;28;20426;-62
2022/03/11 06:41:39;;;;;;;15.63;7.22;;;;;;;;;;4969838;28;20359;-62
2022/03/11 06:44:04;;;;;;;13.25;6.22;;;;;;;;;;4968878;28;20059;-62
2022/03/11 06:46:30;;;;;;;17.33;6.68;;;;;;;;;;4969524;28;20041;-61
2022/03/11 06:48:56;;;;;;;14.30;5.35;;;;;;;;;;4969495;28;20362;-61
2022/03/11 06:51:22;;;;;;;16.38;6.47;;;;;;;;;;4969346;28;20052;-61
2022/03/11 06:53:47;;;;;;;15.00;5.75;;;;;;;;;;4969214;28;20511;-61
2022/03/11 06:56:13;;;;;;;14.57;6.88;;;;;;;;;;4969462;28;20436;-61
2022/03/11 06:58:39;;;;;;;16.55;6.50;;;;;;;;;;4969271;28;20423;-61
2022/03/11 07:01:04;;;;;;;17.00;6.85;;;;;;;;;;4969180;28;20400;-61
2022/03/11 07:03:30;;;;;;;11.82;4.97;;;;;;;;;;4969147;28;20372;-61
2022/03/11 07:05:56;;;;;;;12.55;5.18;;;;;;;;;;4969137;28;20041;-62
2022/03/11 07:08:21;;;;;;;13.43;6.88;;;;;;;;;;4969699;28;20033;-61
2022/03/11 07:10:46;;;;;;;14.02;6.78;;;;;;;;;;4969238;28;20354;-62
2022/03/11 07:13:12;;;;;;;17.00;6.28;;;;;;;;;;4969567;28;20352;-63
2022/03/11 07:15:37;;;;;;;15.82;6.65;;;;;;;;;;4969573;28;20517;-62
2022/03/11 07:18:02;;;;;;;16.30;6.13;;;;;;;;;;4967879;28;20392;-62
2022/03/11 07:20:27;;;;;;;12.15;5.47;;;;;;;;;;4969426;28;20432;-62
2022/03/11 07:22:53;;;;;;;11.48;5.07;;;;;;;;;;4968976;28;20427;-62
2022/03/11 07:25:18;;;;;;;13.05;6.07;;;;;;;;;;4969183;28;20424;-62
2022/03/11 07:27:45;;;;;;;14.60;5.70;;;;;;;;;;4969788;28;20410;-62
2022/03/11 07:30:11;;;;;;;14.35;5.43;;;;;;;;;;4968543;28;20322;-62
2022/03/11 07:32:41;;;;;;;12.13;5.18;;;;;;;;;;4969071;28;20413;-62
2022/03/11 07:35:08;;;;;;;;;;;;;;;;;;4969041;28;20436;-62
2022/03/11 07:37:34;;;;;;;15.25;5.72;;;;;;;;;;4969873;28;19917;-62
2022/03/11 07:39:59;;;;;;;12.00;5.78;;;;;;;;;;4968743;28;20029;-62
2022/03/11 07:42:25;;;;;;;12.95;5.80;;;;;;;;;;4969087;28;20471;-62
2022/03/11 07:44:50;;;;;;;12.55;6.22;;;;;;;;;;4968277;28;20097;-63
2022/03/11 07:47:15;;;;;;;15.23;6.55;;;;;;;;;;4968847;28;20408;-62
2022/03/11 07:49:42;;;;;;;11.02;5.55;;;;;;;;;;4968675;28;20413;-62
2022/03/11 07:52:14;;;;;;;15.18;5.18;;;;;;;;;;4969080;28;20433;-62
2022/03/11 07:54:40;;;;;;;14.15;5.65;;;;;;;;;;4968659;28;20459;-62
2022/03/11 07:57:05;;;;;;;11.57;5.43;;;;;;;;;;4968770;28;20552;-62
2022/03/11 07:59:33;;;;;;;12.10;5.45;;;;;;;;;;4968908;28;20461;-62
2022/03/11 08:01:59;;;;;;;12.90;5.47;;;;;;;;;;4968734;28;20056;-62
2022/03/11 08:04:24;;;;;;;11.13;5.40;;;;;;;;;;4968738;28;20429;-61
2022/03/11 08:06:50;;;;;;;11.13;5.20;;;;;;;;;;4969271;28;20386;-62
2022/03/11 08:09:15;;;;;;;8.45;4.47;;;;;;;;;;4968516;28;20425;-64
2022/03/11 08:11:41;;;;;;;17.05;6.03;;;;;;;;;;4969117;28;20548;-62
2022/03/11 08:14:07;;;;;;;14.35;5.47;;;;;;;;;;4968509;28;20419;-62
2022/03/11 08:16:32;;;;;;;13.43;5.25;;;;;;;;;;4968551;28;20053;-63
2022/03/11 08:18:58;;;;;;;11.75;5.47;;;;;;;;;;4968729;28;20492;-62
2022/03/11 08:21:24;;;;;;;13.70;6.00;;;;;;;;;;4968703;28;20120;-62
2022/03/11 08:23:49;;;;;;;12.98;5.40;;;;;;;;;;4968654;28;20444;-62
2022/03/11 08:26:14;;;;;;;12.77;5.32;;;;;;;;;;4968372;28;20140;-62
2022/03/11 08:28:40;;;;;;;18.25;6.10;;;;;;;;;;4970542;28;20340;-62
2022/03/11 08:31:05;;;;;;;14.68;6.80;;;;;;;;;;4971745;28;20372;-62
2022/03/11 08:33:32;;;;;;;20.67;6.95;;;;;;;;;;4972141;28;20130;-62
2022/03/11 08:35:57;;;;;;;17.90;6.38;;;;;;;;;;4973568;28;20531;-62
2022/03/11 08:38:23;;;;;;;18.63;5.97;;;;;;;;;;4972474;28;20448;-62
2022/03/11 08:40:49;;;;;;;20.33;7.05;;;;;;;;;;4971815;28;20391;-62
2022/03/11 08:43:14;;;;;;;20.30;7.53;;;;;;;;;;4973195;28;20435;-62
2022/03/11 08:45:40;;;;;;;25.35;7.40;;;;;;;;;;4971491;28;20400;-62
2022/03/11 08:48:06;;;;;;;27.13;8.45;;;;;;;;;;4973367;28;20424;-62
2022/03/11 08:50:33;;;;;;;22.08;8.25;;;;;;;;;;4972152;28;20429;-62
2022/03/11 08:52:58;;;;;;;29.90;8.23;;;;;;;;;;4971675;28;20487;-62
2022/03/11 08:55:24;;;;;;;21.70;8.20;;;;;;;;;;4971551;28;20306;-62
2022/03/11 08:57:51;;;;;;;21.00;6.55;;;;;;;;;;4972523;28;20376;-63
2022/03/11 09:00:19;;;;;;;23.05;8.02;;;;;;;;;;4972138;28;20361;-62
2022/03/11 09:02:44;;;;;;;23.55;7.38;;;;;;;;;;4971880;28;20056;-62
2022/03/11 09:05:11;;;;;;;30.10;8.02;;;;;;;;;;4971557;28;20464;-63
2022/03/11 09:07:36;;;;;;;23.80;8.50;;;;;;;;;;4970996;28;20364;-63
2022/03/11 09:10:04;;;;;;;21.75;7.25;;;;;;;;;;4971566;28;20326;-63
2022/03/11 09:12:29;;;;;;;34.58;8.23;;;;;;;;;;4971162;28;20400;-62
2022/03/11 09:14:55;;;;;;;33.17;8.32;;;;;;;;;;4953962;28;20439;-62
2022/03/11 09:17:20;;;;;;;27.08;8.05;;;;;;;;;;4971217;28;20033;-63
2022/03/11 09:19:45;;;;;;;25.13;9.00;;;;;;;;;;4970970;28;20486;-62
2022/03/11 09:22:14;;;;;;;29.70;7.22;;;;;;;;;;4970676;28;20484;-62
2022/03/11 09:24:41;;;;;;;27.25;7.45;;;;;;;;;;4971348;28;20488;-62
2022/03/11 09:27:07;;;;;;;25.10;7.65;;;;;;;;;;4970900;28;20397;-62
2022/03/11 09:29:32;;;;;;;27.10;8.23;;;;;;;;;;4970832;28;20499;-62
2022/03/11 09:31:58;;;;;;;24.50;7.75;;;;;;;;;;4971027;28;20477;-62
2022/03/11 09:34:24;;;;;;;23.58;7.35;;;;;;;;;;4970789;28;20025;-62
2022/03/11 09:36:52;;;;;;;27.15;7.18;;;;;;;;;;4971336;28;20029;-63
2022/03/11 09:39:17;;;;;;;27.40;8.02;;;;;;;;;;4971052;28;20018;-62
2022/03/11 09:41:44;;;;;;;23.92;7.35;;;;;;;;;;4970076;28;20048;-62
2022/03/11 09:44:12;;;;;;;24.42;8.15;;;;;;;;;;4971586;28;20099;-62
2022/03/11 09:46:39;;;;;;;24.83;7.30;;;;;;;;;;4970556;28;20034;-62
2022/03/11 09:49:05;;;;;;;24.15;7.57;;;;;;;;;;4971471;28;20534;-62
2022/03/11 09:51:31;;;;;;;28.10;7.13;;;;;;;;;;4970627;28;20329;-63
2022/03/11 09:53:57;;;;;;;20.95;7.40;;;;;;;;;;4952696;28;20422;-63
2022/03/11 09:56:22;;;;;;;35.33;8.52;;;;;;;;;;4952467;28;20307;-62
2022/03/11 09:58:47;;;;;;;22.95;7.70;;;;;;;;;;4970340;28;20368;-62
2022/03/11 10:01:12;;;;;;;18.65;6.45;;;;;;;;;;4970329;28;20420;-62
2022/03/11 10:03:38;;;;;;;28.25;7.32;;;;;;;;;;4970375;28;20511;-62
2022/03/11 10:06:03;;;;;;;30.00;7.10;;;;;;;;;;4970040;28;20482;-62
2022/03/11 10:08:31;;;;;;;23.40;6.63;;;;;;;;;;4970262;28;20456;-62
2022/03/11 10:11:22;;;;;;;22.35;6.25;;;;;;;;;;4970653;28;20376;-63
2022/03/11 10:13:48;;;;;;;20.15;6.82;;;;;;;;;;4969964;28;20341;-62
2022/03/11 10:16:26;;;;;;;30.67;7.55;;;;;;;;;;4970237;28;20453;-62
2022/03/11 10:19:09;;;;;;;27.67;8.03;;;;;;;;;;4970351;28;20429;-62
2022/03/11 10:21:42;;;;;;;20.23;6.43;;;;;;;;;;4970044;28;20509;-63
2022/03/11 10:24:16;;;;;;;21.00;7.25;;;;;;;;;;4969957;28;20357;-62
2022/03/11 10:26:46;;;;;;;21.70;6.78;;;;;;;;;;4969963;28;20395;-62
2022/03/11 10:29:25;;;;;;;24.10;7.22;;;;;;;;;;4969815;28;20393;-63
2022/03/11 10:31:52;;;;;;;17.65;6.18;;;;;;;;;;4969627;28;20348;-63
2022/03/11 10:34:24;;;;;;;20.27;6.35;;;;;;;;;;4969792;28;20451;-63
2022/03/11 10:36:51;;;;;;;21.65;6.65;;;;;;;;;;4969582;28;20576;-62
2022/03/11 10:39:22;;;;;;;22.48;7.55;;;;;;;;;;4969718;28;20448;-63
2022/03/11 10:41:49;;;;;;;19.80;7.20;;;;;;;;;;4970806;28;20476;-63
2022/03/11 10:44:27;;;;;;;20.90;6.35;;;;;;;;;;4969135;28;20388;-63
2022/03/11 10:47:18;;;;;;;21.63;6.82;;;;;;;;;;4970149;28;20345;-63
2022/03/11 10:49:48;;;;;;;20.55;5.90;;;;;;;;;;4971181;28;20325;-62
2022/03/11 10:52:14;;;;;;;23.40;6.75;;;;;;;;;;4969032;28;20412;-63
2022/03/11 10:54:42;;;;;;;23.13;6.38;;;;;;;;;;4969464;28;20112;-62
2022/03/11 10:57:09;;;;;;;18.90;6.63;;;;;;;;;;4969030;28;20130;-63
2022/03/11 10:59:35;;;;;;;19.10;6.35;;;;;;;;;;4969455;28;20403;-64
2022/03/11 11:02:00;;;;;;;17.13;5.78;;;;;;;;;;4970113;28;20372;-67
2022/03/11 11:04:26;;;;;;;15.27;5.82;;;;;;;;;;4969588;28;20326;-63
2022/03/11 11:06:52;;;;;;;15.10;6.03;;;;;;;;;;4968847;28;20025;-63
2022/03/11 11:09:22;;;;;;;17.70;6.10;;;;;;;;;;4934571;28;20510;-63
2022/03/11 11:11:48;;;;;;;18.38;5.25;;;;;;;;;;4969164;28;20432;-62
2022/03/11 11:14:13;;;;;;;19.42;5.70;;;;;;;;;;4969075;28;20352;-62
2022/03/11 11:16:41;;;;;;;18.58;5.78;;;;;;;;;;4951289;28;20488;-62
2022/03/11 11:19:11;;;;;;;18.55;6.28;;;;;;;;;;4968932;28;20530;-63
2022/03/11 11:21:40;;;;;;;18.08;6.05;;;;;;;;;;4969341;28;20333;-64
2022/03/11 11:24:15;;;;;;;16.08;6.47;;;;;;;;;;4970057;28;20435;-63
2022/03/11 11:26:49;;;;;;;19.70;6.45;;;;;;;;;;4969495;28;20172;-63
2022/03/11 11:29:21;;;;;;;18.55;6.18;;;;;;;;;;4969957;28;20341;-62
2022/03/11 11:31:47;;;;;;;13.55;5.13;;;;;;;;;;4951274;28;20356;-62
2022/03/11 11:34:42;;;;;;;19.30;5.95;;;;;;;;;;4969382;28;20498;-62
2022/03/11 11:37:08;;;;;;;15.70;5.78;;;;;;;;;;4951782;28;20457;-63
2022/03/11 11:39:42;;;;;;;18.52;6.68;;;;;;;;;;4951301;28;20345;-63
2022/03/11 11:42:12;;;;;;;13.07;5.55;;;;;;;;;;4968929;28;20429;-63
2022/03/11 11:44:40;;;;;;;17.83;5.65;;;;;;;;;;4968586;28;20449;-63
2022/03/11 11:47:17;;;;;;;26.63;6.43;;;;;;;;;;4968752;28;20388;-63
2022/03/11 11:49:42;;;;;;;15.25;5.43;;;;;;;;;;4968636;28;20496;-62
2022/03/11 11:52:12;;;;;;;18.65;6.00;;;;;;;;;;4968673;28;20443;-63
2022/03/11 11:54:41;;;;;;;13.80;5.35;;;;;;;;;;4968822;28;20483;-63
2022/03/11 11:57:08;;;;;;;13.55;5.50;;;;;;;;;;4968926;28;20072;-62
2022/03/11 11:59:37;;;;;;;13.85;4.93;;;;;;;;;;4969034;28;20441;-63
2022/03/11 12:02:22;;;;;;;10.35;4.70;;;;;;;;;;4969011;28;20341;-63
2022/03/11 12:04:47;;;;;;;9.85;4.43;;;;;;;;;;4970097;28;20392;-63
2022/03/11 12:07:14;;;;;;;9.07;3.83;;;;;;;;;;4974290;28;20400;-62
2022/03/11 12:09:45;;;;;;;11.25;4.60;;;;;;;;;;4954672;28;20379;-63
2022/03/11 12:12:30;;;;;;;17.60;5.45;;;;;;;;;;4972409;28;20487;-63
2022/03/11 12:15:04;;;;;;;12.80;4.63;;;;;;;;;;4972507;28;20460;-63
2022/03/11 12:17:52;;;;;;;12.05;4.82;;;;;;;;;;4972425;28;20433;-63
2022/03/11 12:20:37;;;;;;;9.67;3.93;;;;;;;;;;4972417;28;20025;-63
2022/03/11 12:23:14;;;;;;;11.57;3.65;;;;;;;;;;4972502;28;20541;-62
2022/03/11 12:26:01;;;;;;;11.32;4.22;;;;;;;;;;4972130;28;20033;-62
2022/03/11 12:28:31;;;;;;;12.57;4.32;;;;;;;;;;4972072;28;20472;-63
2022/03/11 12:31:01;;;;;;;11.27;4.30;;;;;;;;;;4974177;28;21542;-63
2022/03/11 12:33:35;;;;;;;16.85;5.63;;;;;;;;;;4971898;28;20464;-63
2022/03/11 12:36:04;;;;;;;15.50;5.22;;;;;;;;;;4971928;28;20420;-62
2022/03/11 12:38:32;;;;;;;16.95;5.10;;;;;;;;;;4971962;28;20488;-62
2022/03/11 12:41:04;;;;;;;13.30;5.57;;;;;;;;;;4971668;28;20514;-62
2022/03/11 12:43:29;;;;;;;21.52;6.18;;;;;;;;;;4972097;28;20387;-62
2022/03/11 12:45:56;;;;;;;15.40;6.10;;;;;;;;;;4971498;28;20054;-63
2022/03/11 12:48:24;;;;;;;13.45;4.65;;;;;;;;;;4971537;28;20322;-63
2022/03/11 12:50:49;;;;;;;15.73;5.22;;;;;;;;;;4972050;28;20374;-63
2022/03/11 12:53:16;;;;;;;17.15;5.07;;;;;;;;;;4971668;28;20392;-63
2022/03/11 12:55:46;;;;;;;11.80;5.32;;;;;;;;;;4971350;28;20356;-63
2022/03/11 12:58:15;;;;;;;13.00;4.97;;;;;;;;;;4972511;28;20421;-62
2022/03/11 13:01:05;;;;;;;13.25;4.70;;;;;;;;;;4911012;28;20414;-62
2022/03/11 13:03:33;;;;;;;16.05;5.53;;;;;;;;;;4910492;28;20451;-62
2022/03/11 13:06:01;;;;;;;14.20;4.70;;;;;;;;;;4911140;28;20422;-62
2022/03/11 13:08:29;;;;;;;16.87;5.67;;;;;;;;;;4910557;28;20450;-62
2022/03/11 13:10:55;;;;;;;14.48;5.55;;;;;;;;;;4910525;28;20638;-63
2022/03/11 13:13:22;;;;;;;16.83;5.20;;;;;;;;;;4894653;28;20049;-63
2022/03/11 13:15:49;;;;;;;16.98;5.00;;;;;;;;;;4908327;28;20422;-62
2022/03/11 13:18:38;;;;;;;15.93;5.43;;;;;;;;;;4891454;29;20376;-63
2022/03/11 13:21:04;;;;;;;15.93;5.40;;;;;;;;;;4891530;29;20439;-62
2022/03/11 13:23:34;;;;;;;14.82;4.80;;;;;;;;;;4891457;29;20584;-63
2022/03/11 13:26:11;;;;;;;14.27;5.05;;;;;;;;;;4891447;29;20538;-62
2022/03/11 13:28:41;;;;;;;15.57;5.10;;;;;;;;;;4890929;29;20403;-62
2022/03/11 13:31:14;;;;;;;13.55;4.60;;;;;;;;;;4895777;28;20415;-62
2022/03/11 13:33:40;;;;;;;17.77;5.60;;;;;;;;;;4929548;28;20457;-62
2022/03/11 13:36:12;;;;;;;16.20;6.13;;;;;;;;;;4929684;28;20080;-63
2022/03/11 13:39:03;;;;;;;13.98;5.60;;;;;;;;;;4929729;28;20509;-63
2022/03/11 13:41:31;;;;;;;16.90;5.30;;;;;;;;;;4928931;28;20441;-62
2022/03/11 13:44:19;;;;;;;17.45;5.60;;;;;;;;;;4929520;28;20326;-63
2022/03/11 13:46:51;;;;;;;16.17;5.47;;;;;;;;;;4924019;28;20460;-62
2022/03/11 13:49:21;;;;;;;17.20;5.68;;;;;;;;;;4944583;28;20472;-63
2022/03/11 13:51:49;;;;;;;;;;;;;;;;;;4953926;28;20432;-62
2022/03/11 13:54:26;;;;;;;16.05;5.65;;;;;;;;;;4970187;28;20240;-63
2022/03/11 13:56:52;;;;;;;20.48;5.55;;;;;;;;;;4970588;28;20357;-62
2022/03/11 13:59:18;;;;;;;13.75;4.90;;;;;;;;;;4971283;28;20401;-62
2022/03/11 14:01:43;;;;;;;13.73;4.88;;;;;;;;;;4970514;28;20340;-62
2022/03/11 14:04:21;;;;;;;14.40;4.70;;;;;;;;;;4952656;28;20417;-62
2022/03/11 14:06:47;;;;;;;17.85;5.90;;;;;;;;;;4970878;28;20429;-62
2022/03/11 14:09:13;;;;;;;19.10;5.80;;;;;;;;;;4972008;28;20349;-62
2022/03/11 14:11:38;;;;;;;16.60;6.50;;;;;;;;;;4970451;28;20363;-63
2022/03/11 14:14:32;;;;;;;19.48;6.30;;;;;;;;;;4970317;28;20330;-62
2022/03/11 14:17:03;;;;;;;17.05;6.20;;;;;;;;;;4970321;28;20033;-63
2022/03/11 14:19:28;;;;;;;17.45;5.30;;;;;;;;;;4971447;28;20352;-63
2022/03/11 14:21:54;;;;;;;20.08;6.03;;;;;;;;;;4969863;28;20345;-62
2022/03/11 14:24:21;;;;;;;12.52;4.68;;;;;;;;;;4970465;28;20424;-62
2022/03/11 14:26:47;;;;;;;14.68;5.20;;;;;;;;;;4969705;28;20079;-62
2022/03/11 14:29:13;;;;;;;13.32;5.20;;;;;;;;;;4969923;28;20438;-62